Vahey, Matthew
United StatesManBorn 19722012 – 2026Runner id 381380
Events
37
2012 – 2026
Best pace
9.217
km/h · 2014
Best finish
14th
of 128 · 2015
Distance raced
4,751
km · splits not double-counted
Pace over time
km/h · higher is faster
Pace over time: 37 races from 2012 to 2026, ranging from 3.33 to 9.58 kilometres per hour, where higher is faster. A second, age-graded series is drawn above it; the gap between the two is the age credit.
- Actual pace
- Age-graded pace
Results
| Date | Event | Distance | Result | Pace km/h | Placing |
|---|---|---|---|---|---|
| 2012-05-20 | Dirty German Endurance Fest 50 kmUnited States | 50km | 5:44:33 h | 8.707 | 47/118 |
| 2013-05-26 | Dirty German Endurance Fest 50 MileUnited States | 50mi | 9:37:11 h | 8.365 | 32/75 |
| 2013-10-06 | 50km | 6:36:20 h | 7.569 | 158/283 | |
| 2014-05-18 | 50mi | 8:43:49 h | 9.217 | 25/76 | |
| 2014-10-05 | 50km | 5:36:42 h | 8.910 | 102/259 | |
| 2015-07-18 | Lone Ranger 24 hr Urban UltraUnited States | 24h | 136.150 km | 5.673 | 14/128 |
| 2016-03-06 | 40mi | 7:56:19 h | 8.109 | 38/99 | |
| 2016-04-30 | 50mi | 11:19:27 h | 7.106 | 139/330 | |
| 2016-05-14 | 100mi | 29:01:30 h | 5.545 | 50/151 | |
| 2016-09-04 | 12h | 80.467 km | 6.706 | 32/230 | |
| 2016-09-17 | 100km | 13:06:08 h | 7.632 | 18/35 | |
| 2017-03-04 | 40mi | 7:57:06 h | 8.096 | 39/83 | |
| 2017-04-01 | 50mi | 10:09:43 h | 7.918 | 9/42 | |
| 2017-05-06 | 100mi | 31:09:03 h | 5.166 | 65/149 | |
| 2017-06-16 | 100mi | 28:40:17 h | 5.613 | 35/134 | |
| 2018-03-03 | 40mi | 8:14:08 h | 7.817 | 41/72 | |
| 2018-03-24 | 40mi | 11:32:18 h | 5.579 | 32/34 | |
| 2018-03-31 | 50mi | 10:42:10 h | 7.518 | 39/69 | |
| 2018-04-20 | 100mi | 38:43:35 h | 4.156 | 74/74 | |
| 2018-10-06 | 100mi | 30:33:40 h | 5.266 | 48/70 | |
| 2019-03-02 | 40mi | 9:24:50 h | 6.838 | 41/54 | |
| 2019-05-17 | 106mi | 43:08:24 h | 3.954 | 102/136 | |
| 2019-08-10 | 100mi | 34:07:10 h | 4.717 | 88/133 | |
| 2019-10-04 | 100mi | 32:49:30 h | 4.903 | 146/198 | |
| 2021-08-14 | Eastern States 100 MileUnited States | 100mi | 35:44:39 h | 4.502 | 83/83 |
| 2021-09-17 | 100mi | 33:04:18 h | 4.866 | 92/156 | |
| 2022-04-02 | 50mi | 11:53:24 h | 6.768 | 59/67 | |
| 2022-05-06 | 100mi | 36:41:40 h | 4.386 | 52/67 | |
| 2022-08-13 | 100mi | 33:47:43 h | 4.762 | 86/121 | |
| 2023-04-22 | 100mi | 28:55:56 h | 5.562 | 73/89 | |
| 2023-05-12 | 100mi | 38:13:00 h | 4.211 | 65/78 | |
| 2023-09-22 | Grindstone 100 MileUnited States | 100mi | 34:24:29 h | 4.677 | 137/182 |
| 2024-05-18 | 100mi | 33:50:48 h | 4.755 | 87/119 | |
| 2024-09-20 | Grindstone 100 MileUnited States | 100mi | 35:04:59 h | 4.587 | 159/171 |
| 2025-05-17 | 100mi | 33:03:18 h | 4.869 | 58/94 | |
| 2026-07-10 | 72h | 241.568 km | 3.355 | 14/80 | |
| 2026-08-07 | 206mi | 4d 03:30:38 h | 3.332 | 145/188 |